Terminal Aerodrome Forecast
Issued by NWS Bismarck, ND

Home | Current Version | Previous Version | Text Only | Print | Product List | Glossary Off
Versions: 1 2 3 4 5 6 7 8 9 10 11 12 13 14 15 16 17

000
FTUS43 KBIS 191400 AAA
TAFBIS
TAF AMD
KBIS 191413Z 1914/2012 26007KT P6SM BKN100
     FM191700 28016G28KT P6SM SCT150
     FM200300 29009KT P6SM SCT070=

USA.gov is the U.S. government's official web portal to all federal, state and local government web resources and services.